sensor_id;sensor_type;location;lat;lon;timestamp;P1;durP1;ratioP1;P2;durP2;ratioP2
45338;SDS011;31071;51.478;5.710;2024-01-25T00:01:53;45.30;;;6.90;;
45338;SDS011;31071;51.478;5.710;2024-01-25T00:04:19;41.83;;;6.32;;
45338;SDS011;31071;51.478;5.710;2024-01-25T00:06:44;45.17;;;6.63;;
45338;SDS011;31071;51.478;5.710;2024-01-25T00:09:10;43.25;;;6.40;;
45338;SDS011;31071;51.478;5.710;2024-01-25T00:11:36;47.70;;;6.88;;
45338;SDS011;31071;51.478;5.710;2024-01-25T00:14:01;52.85;;;7.07;;
45338;SDS011;31071;51.478;5.710;2024-01-25T00:16:28;40.75;;;6.45;;
45338;SDS011;31071;51.478;5.710;2024-01-25T00:18:53;44.15;;;6.28;;
45338;SDS011;31071;51.478;5.710;2024-01-25T00:21:19;34.90;;;5.75;;
45338;SDS011;31071;51.478;5.710;2024-01-25T00:23:45;50.05;;;7.18;;
45338;SDS011;31071;51.478;5.710;2024-01-25T00:26:10;34.70;;;5.88;;
45338;SDS011;31071;51.478;5.710;2024-01-25T00:28:38;40.35;;;6.07;;
45338;SDS011;31071;51.478;5.710;2024-01-25T00:31:03;37.47;;;6.25;;
45338;SDS011;31071;51.478;5.710;2024-01-25T00:33:29;42.88;;;6.03;;
45338;SDS011;31071;51.478;5.710;2024-01-25T00:35:55;50.88;;;6.68;;
45338;SDS011;31071;51.478;5.710;2024-01-25T00:38:21;48.03;;;6.90;;
45338;SDS011;31071;51.478;5.710;2024-01-25T00:40:46;43.75;;;6.43;;
45338;SDS011;31071;51.478;5.710;2024-01-25T00:43:13;38.08;;;6.45;;
45338;SDS011;31071;51.478;5.710;2024-01-25T00:45:39;42.97;;;7.18;;
45338;SDS011;31071;51.478;5.710;2024-01-25T00:48:05;47.50;;;6.35;;
45338;SDS011;31071;51.478;5.710;2024-01-25T00:50:33;46.88;;;6.63;;
45338;SDS011;31071;51.478;5.710;2024-01-25T00:52:59;49.95;;;6.43;;
45338;SDS011;31071;51.478;5.710;2024-01-25T00:55:24;42.35;;;6.03;;
45338;SDS011;31071;51.478;5.710;2024-01-25T00:57:51;52.25;;;6.95;;
45338;SDS011;31071;51.478;5.710;2024-01-25T01:00:17;29.40;;;5.57;;
45338;SDS011;31071;51.478;5.710;2024-01-25T01:02:43;40.60;;;6.05;;
45338;SDS011;31071;51.478;5.710;2024-01-25T01:05:10;43.03;;;6.40;;
45338;SDS011;31071;51.478;5.710;2024-01-25T01:07:37;37.75;;;5.85;;
45338;SDS011;31071;51.478;5.710;2024-01-25T01:10:05;52.10;;;6.88;;
45338;SDS011;31071;51.478;5.710;2024-01-25T01:12:32;42.97;;;5.68;;
45338;SDS011;31071;51.478;5.710;2024-01-25T01:14:59;45.53;;;7.28;;
45338;SDS011;31071;51.478;5.710;2024-01-25T01:17:24;43.28;;;6.25;;
45338;SDS011;31071;51.478;5.710;2024-01-25T01:19:50;47.97;;;6.80;;
45338;SDS011;31071;51.478;5.710;2024-01-25T01:22:15;52.67;;;6.40;;
45338;SDS011;31071;51.478;5.710;2024-01-25T01:24:41;49.88;;;6.45;;
45338;SDS011;31071;51.478;5.710;2024-01-25T01:27:07;44.70;;;7.57;;
45338;SDS011;31071;51.478;5.710;2024-01-25T01:29:32;44.88;;;6.72;;
45338;SDS011;31071;51.478;5.710;2024-01-25T01:31:58;54.55;;;6.40;;
45338;SDS011;31071;51.478;5.710;2024-01-25T01:34:24;38.85;;;6.20;;
45338;SDS011;31071;51.478;5.710;2024-01-25T01:36:49;36.53;;;5.88;;
45338;SDS011;31071;51.478;5.710;2024-01-25T01:39:15;42.28;;;5.50;;
45338;SDS011;31071;51.478;5.710;2024-01-25T01:41:47;55.25;;;6.10;;
45338;SDS011;31071;51.478;5.710;2024-01-25T01:44:13;43.00;;;6.45;;
45338;SDS011;31071;51.478;5.710;2024-01-25T01:46:39;49.75;;;6.10;;
45338;SDS011;31071;51.478;5.710;2024-01-25T01:49:07;50.75;;;7.00;;
45338;SDS011;31071;51.478;5.710;2024-01-25T01:51:36;44.28;;;6.38;;
45338;SDS011;31071;51.478;5.710;2024-01-25T01:54:03;49.63;;;6.43;;
45338;SDS011;31071;51.478;5.710;2024-01-25T01:56:31;52.30;;;7.15;;
45338;SDS011;31071;51.478;5.710;2024-01-25T01:58:57;51.03;;;6.82;;
45338;SDS011;31071;51.478;5.710;2024-01-25T02:01:24;50.63;;;6.22;;
45338;SDS011;31071;51.478;5.710;2024-01-25T02:03:50;53.83;;;7.03;;
45338;SDS011;31071;51.478;5.710;2024-01-25T02:06:16;51.58;;;7.22;;
45338;SDS011;31071;51.478;5.710;2024-01-25T02:08:42;46.38;;;6.10;;
45338;SDS011;31071;51.478;5.710;2024-01-25T02:11:10;48.20;;;6.45;;
45338;SDS011;31071;51.478;5.710;2024-01-25T02:13:37;46.50;;;6.47;;
45338;SDS011;31071;51.478;5.710;2024-01-25T02:16:03;41.83;;;6.72;;
45338;SDS011;31071;51.478;5.710;2024-01-25T02:18:29;47.47;;;6.60;;
45338;SDS011;31071;51.478;5.710;2024-01-25T02:20:55;40.22;;;6.05;;
45338;SDS011;31071;51.478;5.710;2024-01-25T02:23:21;46.50;;;6.30;;
45338;SDS011;31071;51.478;5.710;2024-01-25T02:25:46;57.13;;;6.43;;
45338;SDS011;31071;51.478;5.710;2024-01-25T02:28:12;51.85;;;6.55;;
45338;SDS011;31071;51.478;5.710;2024-01-25T02:30:38;56.50;;;6.80;;
45338;SDS011;31071;51.478;5.710;2024-01-25T02:33:03;45.30;;;6.97;;
45338;SDS011;31071;51.478;5.710;2024-01-25T02:35:29;48.15;;;6.05;;
45338;SDS011;31071;51.478;5.710;2024-01-25T02:37:55;40.78;;;6.28;;
45338;SDS011;31071;51.478;5.710;2024-01-25T02:40:20;49.00;;;6.50;;
45338;SDS011;31071;51.478;5.710;2024-01-25T02:42:46;59.35;;;7.30;;
45338;SDS011;31071;51.478;5.710;2024-01-25T02:45:11;47.78;;;6.07;;
45338;SDS011;31071;51.478;5.710;2024-01-25T02:47:37;45.47;;;6.43;;
45338;SDS011;31071;51.478;5.710;2024-01-25T02:50:03;53.47;;;7.03;;
45338;SDS011;31071;51.478;5.710;2024-01-25T02:52:28;66.53;;;8.23;;
45338;SDS011;31071;51.478;5.710;2024-01-25T02:54:54;58.40;;;6.70;;
45338;SDS011;31071;51.478;5.710;2024-01-25T02:57:20;43.58;;;6.43;;
45338;SDS011;31071;51.478;5.710;2024-01-25T02:59:45;52.42;;;6.53;;
45338;SDS011;31071;51.478;5.710;2024-01-25T03:02:12;52.70;;;7.10;;
45338;SDS011;31071;51.478;5.710;2024-01-25T03:04:37;51.97;;;7.80;;
45338;SDS011;31071;51.478;5.710;2024-01-25T03:07:03;54.67;;;6.68;;
45338;SDS011;31071;51.478;5.710;2024-01-25T03:09:29;54.15;;;7.28;;
45338;SDS011;31071;51.478;5.710;2024-01-25T03:11:54;69.75;;;8.25;;
45338;SDS011;31071;51.478;5.710;2024-01-25T03:14:20;55.67;;;8.90;;
45338;SDS011;31071;51.478;5.710;2024-01-25T03:16:46;54.05;;;7.30;;
45338;SDS011;31071;51.478;5.710;2024-01-25T03:19:11;44.72;;;7.15;;
45338;SDS011;31071;51.478;5.710;2024-01-25T03:21:37;59.95;;;6.90;;
45338;SDS011;31071;51.478;5.710;2024-01-25T03:24:03;49.90;;;6.20;;
45338;SDS011;31071;51.478;5.710;2024-01-25T03:26:28;52.38;;;6.35;;
45338;SDS011;31071;51.478;5.710;2024-01-25T03:28:54;52.50;;;7.05;;
45338;SDS011;31071;51.478;5.710;2024-01-25T03:31:20;50.22;;;6.55;;
45338;SDS011;31071;51.478;5.710;2024-01-25T03:33:45;44.20;;;5.90;;
45338;SDS011;31071;51.478;5.710;2024-01-25T03:36:13;54.92;;;7.35;;
45338;SDS011;31071;51.478;5.710;2024-01-25T03:38:40;48.53;;;6.45;;
45338;SDS011;31071;51.478;5.710;2024-01-25T03:41:06;47.00;;;6.40;;
45338;SDS011;31071;51.478;5.710;2024-01-25T03:43:32;58.55;;;6.75;;
45338;SDS011;31071;51.478;5.710;2024-01-25T03:45:57;44.30;;;6.15;;
45338;SDS011;31071;51.478;5.710;2024-01-25T03:48:23;52.20;;;6.53;;
45338;SDS011;31071;51.478;5.710;2024-01-25T03:50:49;45.42;;;6.32;;
45338;SDS011;31071;51.478;5.710;2024-01-25T03:53:14;54.17;;;6.63;;
45338;SDS011;31071;51.478;5.710;2024-01-25T03:55:40;40.60;;;5.65;;
45338;SDS011;31071;51.478;5.710;2024-01-25T03:58:13;55.97;;;6.18;;
45338;SDS011;31071;51.478;5.710;2024-01-25T04:00:43;45.40;;;6.35;;
45338;SDS011;31071;51.478;5.710;2024-01-25T04:03:09;41.67;;;6.28;;
45338;SDS011;31071;51.478;5.710;2024-01-25T04:05:35;49.05;;;6.72;;
45338;SDS011;31071;51.478;5.710;2024-01-25T04:08:01;44.38;;;6.97;;
45338;SDS011;31071;51.478;5.710;2024-01-25T04:10:26;49.63;;;6.40;;
45338;SDS011;31071;51.478;5.710;2024-01-25T04:12:52;50.83;;;6.25;;
45338;SDS011;31071;51.478;5.710;2024-01-25T04:15:18;47.38;;;6.32;;
45338;SDS011;31071;51.478;5.710;2024-01-25T04:17:43;45.20;;;6.47;;
45338;SDS011;31071;51.478;5.710;2024-01-25T04:20:09;58.63;;;6.18;;
45338;SDS011;31071;51.478;5.710;2024-01-25T04:22:35;35.47;;;6.07;;
45338;SDS011;31071;51.478;5.710;2024-01-25T04:25:01;51.85;;;8.95;;
45338;SDS011;31071;51.478;5.710;2024-01-25T04:27:27;44.45;;;6.97;;
45338;SDS011;31071;51.478;5.710;2024-01-25T04:29:53;49.35;;;7.05;;
45338;SDS011;31071;51.478;5.710;2024-01-25T04:32:19;35.85;;;6.50;;
45338;SDS011;31071;51.478;5.710;2024-01-25T04:34:45;44.42;;;7.40;;
45338;SDS011;31071;51.478;5.710;2024-01-25T04:37:12;43.45;;;7.60;;
45338;SDS011;31071;51.478;5.710;2024-01-25T04:39:38;54.67;;;7.43;;
45338;SDS011;31071;51.478;5.710;2024-01-25T04:42:04;60.13;;;7.45;;
45338;SDS011;31071;51.478;5.710;2024-01-25T04:44:30;47.13;;;7.00;;
45338;SDS011;31071;51.478;5.710;2024-01-25T04:46:56;36.67;;;5.40;;
45338;SDS011;31071;51.478;5.710;2024-01-25T04:49:21;53.38;;;7.13;;
45338;SDS011;31071;51.478;5.710;2024-01-25T04:51:47;53.88;;;6.93;;
45338;SDS011;31071;51.478;5.710;2024-01-25T04:54:13;58.17;;;6.75;;
45338;SDS011;31071;51.478;5.710;2024-01-25T04:56:40;45.03;;;6.28;;
45338;SDS011;31071;51.478;5.710;2024-01-25T04:59:09;45.00;;;6.28;;
45338;SDS011;31071;51.478;5.710;2024-01-25T05:01:35;42.10;;;6.60;;
45338;SDS011;31071;51.478;5.710;2024-01-25T05:04:00;43.95;;;5.70;;
45338;SDS011;31071;51.478;5.710;2024-01-25T05:06:26;54.72;;;6.82;;
45338;SDS011;31071;51.478;5.710;2024-01-25T05:08:51;43.25;;;8.00;;
45338;SDS011;31071;51.478;5.710;2024-01-25T05:11:17;48.92;;;6.15;;
45338;SDS011;31071;51.478;5.710;2024-01-25T05:13:43;43.92;;;6.80;;
45338;SDS011;31071;51.478;5.710;2024-01-25T05:16:09;51.25;;;6.93;;
45338;SDS011;31071;51.478;5.710;2024-01-25T05:18:34;54.13;;;7.03;;
45338;SDS011;31071;51.478;5.710;2024-01-25T05:21:00;52.55;;;7.40;;
45338;SDS011;31071;51.478;5.710;2024-01-25T05:23:25;50.00;;;7.68;;
45338;SDS011;31071;51.478;5.710;2024-01-25T05:25:52;46.63;;;6.85;;
45338;SDS011;31071;51.478;5.710;2024-01-25T05:28:17;57.40;;;7.55;;
45338;SDS011;31071;51.478;5.710;2024-01-25T05:30:43;41.80;;;6.47;;
45338;SDS011;31071;51.478;5.710;2024-01-25T05:33:09;51.22;;;7.38;;
45338;SDS011;31071;51.478;5.710;2024-01-25T05:35:35;54.83;;;8.15;;
45338;SDS011;31071;51.478;5.710;2024-01-25T05:38:00;53.20;;;7.78;;
45338;SDS011;31071;51.478;5.710;2024-01-25T05:40:26;56.78;;;7.47;;
45338;SDS011;31071;51.478;5.710;2024-01-25T05:42:52;56.45;;;7.93;;
45338;SDS011;31071;51.478;5.710;2024-01-25T05:45:18;52.05;;;7.10;;
45338;SDS011;31071;51.478;5.710;2024-01-25T05:47:46;59.42;;;8.07;;
45338;SDS011;31071;51.478;5.710;2024-01-25T05:50:12;46.58;;;6.50;;
45338;SDS011;31071;51.478;5.710;2024-01-25T05:52:38;50.92;;;7.47;;
45338;SDS011;31071;51.478;5.710;2024-01-25T05:55:04;49.58;;;7.00;;
45338;SDS011;31071;51.478;5.710;2024-01-25T05:57:31;52.28;;;7.18;;
45338;SDS011;31071;51.478;5.710;2024-01-25T05:59:57;66.97;;;7.70;;
45338;SDS011;31071;51.478;5.710;2024-01-25T06:02:23;58.58;;;7.70;;
45338;SDS011;31071;51.478;5.710;2024-01-25T06:04:48;48.95;;;7.13;;
45338;SDS011;31071;51.478;5.710;2024-01-25T06:07:14;59.22;;;8.00;;
45338;SDS011;31071;51.478;5.710;2024-01-25T06:09:40;51.55;;;8.27;;
45338;SDS011;31071;51.478;5.710;2024-01-25T06:12:06;55.50;;;7.70;;
45338;SDS011;31071;51.478;5.710;2024-01-25T06:14:31;50.50;;;7.25;;
45338;SDS011;31071;51.478;5.710;2024-01-25T06:16:57;52.92;;;8.07;;
45338;SDS011;31071;51.478;5.710;2024-01-25T06:19:23;53.67;;;7.47;;
45338;SDS011;31071;51.478;5.710;2024-01-25T06:21:49;54.75;;;7.68;;
45338;SDS011;31071;51.478;5.710;2024-01-25T06:24:15;59.55;;;7.75;;
45338;SDS011;31071;51.478;5.710;2024-01-25T06:26:40;50.60;;;6.78;;
45338;SDS011;31071;51.478;5.710;2024-01-25T06:29:06;56.22;;;7.88;;
45338;SDS011;31071;51.478;5.710;2024-01-25T06:31:32;45.45;;;7.25;;
45338;SDS011;31071;51.478;5.710;2024-01-25T06:33:57;38.55;;;7.80;;
45338;SDS011;31071;51.478;5.710;2024-01-25T06:36:23;51.78;;;7.88;;
45338;SDS011;31071;51.478;5.710;2024-01-25T06:38:49;54.38;;;7.32;;
45338;SDS011;31071;51.478;5.710;2024-01-25T06:41:14;52.20;;;7.15;;
45338;SDS011;31071;51.478;5.710;2024-01-25T06:43:41;34.85;;;6.18;;
45338;SDS011;31071;51.478;5.710;2024-01-25T06:46:07;49.55;;;6.95;;
45338;SDS011;31071;51.478;5.710;2024-01-25T06:48:33;37.72;;;6.75;;
45338;SDS011;31071;51.478;5.710;2024-01-25T06:50:59;47.25;;;8.45;;
45338;SDS011;31071;51.478;5.710;2024-01-25T06:53:26;44.22;;;7.68;;
45338;SDS011;31071;51.478;5.710;2024-01-25T06:55:51;45.50;;;7.68;;
45338;SDS011;31071;51.478;5.710;2024-01-25T06:58:17;47.28;;;7.18;;
45338;SDS011;31071;51.478;5.710;2024-01-25T07:00:43;39.88;;;8.18;;
45338;SDS011;31071;51.478;5.710;2024-01-25T07:03:10;49.50;;;7.38;;
45338;SDS011;31071;51.478;5.710;2024-01-25T07:05:35;48.33;;;7.78;;
45338;SDS011;31071;51.478;5.710;2024-01-25T07:08:04;63.33;;;8.38;;
45338;SDS011;31071;51.478;5.710;2024-01-25T07:10:30;52.25;;;8.07;;
45338;SDS011;31071;51.478;5.710;2024-01-25T07:12:56;52.45;;;8.98;;
45338;SDS011;31071;51.478;5.710;2024-01-25T07:15:22;54.35;;;8.73;;
45338;SDS011;31071;51.478;5.710;2024-01-25T07:17:50;56.00;;;8.35;;
45338;SDS011;31071;51.478;5.710;2024-01-25T07:20:16;37.17;;;8.10;;
45338;SDS011;31071;51.478;5.710;2024-01-25T07:22:42;61.58;;;9.40;;
45338;SDS011;31071;51.478;5.710;2024-01-25T07:25:08;50.40;;;9.25;;
45338;SDS011;31071;51.478;5.710;2024-01-25T07:27:33;40.25;;;8.90;;
45338;SDS011;31071;51.478;5.710;2024-01-25T07:29:59;50.72;;;8.65;;
45338;SDS011;31071;51.478;5.710;2024-01-25T07:32:25;48.90;;;8.77;;
45338;SDS011;31071;51.478;5.710;2024-01-25T07:34:52;45.10;;;9.18;;
45338;SDS011;31071;51.478;5.710;2024-01-25T07:37:19;54.88;;;9.20;;
45338;SDS011;31071;51.478;5.710;2024-01-25T07:39:45;47.30;;;10.20;;
45338;SDS011;31071;51.478;5.710;2024-01-25T07:42:11;58.10;;;11.32;;
45338;SDS011;31071;51.478;5.710;2024-01-25T07:44:37;61.13;;;10.23;;
45338;SDS011;31071;51.478;5.710;2024-01-25T07:47:03;57.47;;;10.05;;
45338;SDS011;31071;51.478;5.710;2024-01-25T07:49:29;49.20;;;9.77;;
45338;SDS011;31071;51.478;5.710;2024-01-25T07:51:55;61.30;;;10.65;;
45338;SDS011;31071;51.478;5.710;2024-01-25T07:54:23;54.90;;;9.65;;
45338;SDS011;31071;51.478;5.710;2024-01-25T07:56:56;56.00;;;10.20;;
45338;SDS011;31071;51.478;5.710;2024-01-25T07:59:21;55.42;;;10.48;;
45338;SDS011;31071;51.478;5.710;2024-01-25T08:01:52;53.78;;;10.40;;
45338;SDS011;31071;51.478;5.710;2024-01-25T08:04:24;52.08;;;9.57;;
45338;SDS011;31071;51.478;5.710;2024-01-25T08:10:04;58.78;;;10.23;;
45338;SDS011;31071;51.478;5.710;2024-01-25T08:12:51;57.90;;;9.15;;
45338;SDS011;31071;51.478;5.710;2024-01-25T08:15:20;51.22;;;10.15;;
45338;SDS011;31071;51.478;5.710;2024-01-25T08:18:14;66.25;;;10.95;;
45338;SDS011;31071;51.478;5.710;2024-01-25T08:20:53;55.25;;;9.90;;
45338;SDS011;31071;51.478;5.710;2024-01-25T08:23:21;52.70;;;10.02;;
45338;SDS011;31071;51.478;5.710;2024-01-25T08:25:53;55.80;;;10.50;;
45338;SDS011;31071;51.478;5.710;2024-01-25T08:31:21;61.00;;;11.57;;
45338;SDS011;31071;51.478;5.710;2024-01-25T08:36:47;69.72;;;12.90;;
45338;SDS011;31071;51.478;5.710;2024-01-25T08:39:14;62.60;;;12.68;;
45338;SDS011;31071;51.478;5.710;2024-01-25T08:41:42;72.18;;;13.82;;
45338;SDS011;31071;51.478;5.710;2024-01-25T08:44:14;70.90;;;14.07;;
45338;SDS011;31071;51.478;5.710;2024-01-25T08:46:39;70.57;;;14.13;;
45338;SDS011;31071;51.478;5.710;2024-01-25T08:49:07;54.75;;;13.15;;
45338;SDS011;31071;51.478;5.710;2024-01-25T08:51:37;54.50;;;14.00;;
45338;SDS011;31071;51.478;5.710;2024-01-25T08:54:06;82.28;;;15.05;;
45338;SDS011;31071;51.478;5.710;2024-01-25T08:56:35;60.72;;;14.13;;
45338;SDS011;31071;51.478;5.710;2024-01-25T08:59:09;75.90;;;14.93;;
45338;SDS011;31071;51.478;5.710;2024-01-25T09:02:15;77.20;;;15.27;;
45338;SDS011;31071;51.478;5.710;2024-01-25T09:05:07;67.60;;;16.33;;
45338;SDS011;31071;51.478;5.710;2024-01-25T09:07:37;77.25;;;17.13;;
45338;SDS011;31071;51.478;5.710;2024-01-25T09:13:16;80.25;;;17.00;;
45338;SDS011;31071;51.478;5.710;2024-01-25T09:16:06;71.75;;;17.83;;
45338;SDS011;31071;51.478;5.710;2024-01-25T12:07:25;69.32;;;22.00;;
45338;SDS011;31071;51.478;5.710;2024-01-25T12:13:02;62.95;;;21.50;;
45338;SDS011;31071;51.478;5.710;2024-01-25T12:15:47;62.42;;;23.25;;
45338;SDS011;31071;51.478;5.710;2024-01-25T12:18:55;63.13;;;21.52;;
45338;SDS011;31071;51.478;5.710;2024-01-25T12:21:34;69.10;;;24.15;;
45338;SDS011;31071;51.478;5.710;2024-01-25T12:24:01;66.10;;;25.23;;
45338;SDS011;31071;51.478;5.710;2024-01-25T12:26:33;64.82;;;23.52;;
45338;SDS011;31071;51.478;5.710;2024-01-25T12:29:32;65.70;;;23.53;;
45338;SDS011;31071;51.478;5.710;2024-01-25T12:32:16;61.05;;;22.40;;
45338;SDS011;31071;51.478;5.710;2024-01-25T12:35:13;63.80;;;21.35;;
45338;SDS011;31071;51.478;5.710;2024-01-25T12:37:40;60.85;;;22.02;;
45338;SDS011;31071;51.478;5.710;2024-01-25T12:40:13;59.83;;;19.98;;
45338;SDS011;31071;51.478;5.710;2024-01-25T12:43:10;47.65;;;17.70;;
45338;SDS011;31071;51.478;5.710;2024-01-25T12:46:25;54.70;;;17.20;;
45338;SDS011;31071;51.478;5.710;2024-01-25T12:49:19;49.63;;;16.55;;
45338;SDS011;31071;51.478;5.710;2024-01-25T12:51:52;47.25;;;15.93;;
45338;SDS011;31071;51.478;5.710;2024-01-25T13:03:26;45.63;;;15.80;;
45338;SDS011;31071;51.478;5.710;2024-01-25T13:09:07;49.03;;;16.30;;
45338;SDS011;31071;51.478;5.710;2024-01-25T13:11:33;55.42;;;16.75;;
45338;SDS011;31071;51.478;5.710;2024-01-25T13:31:25;51.28;;;16.27;;
45338;SDS011;31071;51.478;5.710;2024-01-25T14:28:41;61.25;;;17.88;;
45338;SDS011;31071;51.478;5.710;2024-01-25T14:39:55;68.07;;;18.45;;
45338;SDS011;31071;51.478;5.710;2024-01-25T14:43:21;67.60;;;18.48;;
45338;SDS011;31071;51.478;5.710;2024-01-25T14:45:48;51.30;;;17.83;;
45338;SDS011;31071;51.478;5.710;2024-01-25T15:58:43;74.72;;;21.05;;
45338;SDS011;31071;51.478;5.710;2024-01-25T16:25:04;62.10;;;19.13;;
45338;SDS011;31071;51.478;5.710;2024-01-25T16:27:56;52.15;;;17.33;;
45338;SDS011;31071;51.478;5.710;2024-01-25T16:30:22;60.10;;;18.67;;
45338;SDS011;31071;51.478;5.710;2024-01-25T16:32:50;56.72;;;18.92;;
45338;SDS011;31071;51.478;5.710;2024-01-25T16:41:49;46.67;;;16.02;;
45338;SDS011;31071;51.478;5.710;2024-01-25T16:44:28;41.60;;;16.15;;
45338;SDS011;31071;51.478;5.710;2024-01-25T16:47:26;44.15;;;16.75;;
45338;SDS011;31071;51.478;5.710;2024-01-25T17:32:39;51.90;;;21.27;;
45338;SDS011;31071;51.478;5.710;2024-01-25T17:36:01;51.28;;;22.27;;
45338;SDS011;31071;51.478;5.710;2024-01-25T17:39:01;52.58;;;21.73;;
45338;SDS011;31071;51.478;5.710;2024-01-25T17:41:33;41.78;;;21.48;;
45338;SDS011;31071;51.478;5.710;2024-01-25T17:58:49;63.80;;;25.52;;
45338;SDS011;31071;51.478;5.710;2024-01-25T18:01:15;62.58;;;25.42;;
45338;SDS011;31071;51.478;5.710;2024-01-25T20:53:28;76.47;;;31.10;;
45338;SDS011;31071;51.478;5.710;2024-01-25T20:55:54;78.78;;;31.52;;
45338;SDS011;31071;51.478;5.710;2024-01-25T20:58:20;71.22;;;30.23;;
45338;SDS011;31071;51.478;5.710;2024-01-25T21:00:46;74.05;;;31.45;;
45338;SDS011;31071;51.478;5.710;2024-01-25T21:03:12;71.93;;;30.63;;
45338;SDS011;31071;51.478;5.710;2024-01-25T21:05:41;73.28;;;31.00;;
45338;SDS011;31071;51.478;5.710;2024-01-25T21:08:07;75.18;;;32.08;;
45338;SDS011;31071;51.478;5.710;2024-01-25T21:17:14;77.75;;;30.95;;
45338;SDS011;31071;51.478;5.710;2024-01-25T21:20:17;67.18;;;29.20;;
45338;SDS011;31071;51.478;5.710;2024-01-25T21:23:06;69.15;;;29.58;;
45338;SDS011;31071;51.478;5.710;2024-01-25T21:25:51;71.75;;;31.13;;
45338;SDS011;31071;51.478;5.710;2024-01-25T21:28:16;73.18;;;31.02;;
45338;SDS011;31071;51.478;5.710;2024-01-25T21:30:42;71.75;;;32.20;;
45338;SDS011;31071;51.478;5.710;2024-01-25T21:33:08;72.85;;;31.55;;
